createdAt,value
2016-08-04T00:00:03.354Z,17.5
2016-08-04T00:01:01.922Z,17.47
2016-08-04T00:02:01.926Z,17.46
2016-08-04T00:03:02.654Z,17.49
2016-08-04T00:04:03.413Z,17.42
2016-08-04T00:05:02.646Z,17.46
2016-08-04T00:06:03.374Z,17.42
2016-08-04T00:07:02.653Z,17.38
2016-08-04T00:08:03.366Z,17.41
2016-08-04T00:09:03.378Z,17.41
2016-08-04T00:10:03.379Z,17.35
2016-08-04T00:11:03.378Z,17.35
2016-08-04T00:12:02.658Z,17.34
2016-08-04T00:13:02.657Z,17.37
2016-08-04T00:14:03.381Z,17.34
2016-08-04T00:15:02.658Z,17.32
2016-08-04T00:16:02.658Z,17.32
2016-08-04T00:17:02.658Z,17.34
2016-08-04T00:18:03.382Z,17.34
2016-08-04T00:19:02.666Z,17.34
2016-08-04T00:20:03.386Z,17.31
2016-08-04T00:21:02.663Z,17.31
2016-08-04T00:22:03.395Z,17.3
2016-08-04T00:23:02.663Z,17.32
2016-08-04T00:24:03.390Z,17.24
2016-08-04T00:25:03.382Z,17.24
2016-08-04T00:26:02.677Z,17.19
2016-08-04T00:27:03.398Z,17.31
2016-08-04T00:28:03.387Z,17.2
2016-08-04T00:29:02.668Z,17.13
2016-08-04T00:30:02.679Z,17.16
2016-08-04T00:31:01.950Z,17.2
2016-08-04T00:32:03.394Z,17.12
2016-08-04T00:33:03.396Z,17.04
2016-08-04T00:34:03.396Z,17.04
2016-08-04T00:35:02.687Z,17.04
2016-08-04T00:36:02.679Z,17.09
2016-08-04T00:37:01.959Z,16.99
2016-08-04T00:38:03.407Z,16.94
2016-08-04T00:39:03.395Z,17.02
2016-08-04T00:40:02.691Z,16.91
2016-08-04T00:41:03.411Z,17.05
2016-08-04T00:42:02.687Z,16.97
2016-08-04T00:43:03.411Z,16.86
2016-08-04T00:44:02.691Z,16.97
2016-08-04T00:45:02.696Z,16.95
2016-08-04T00:46:03.411Z,16.89
2016-08-04T00:47:02.694Z,16.86
2016-08-04T00:48:03.411Z,16.89
2016-08-04T00:49:02.703Z,16.86
2016-08-04T00:50:03.420Z,16.84
2016-08-04T00:51:03.415Z,16.84
2016-08-04T00:52:01.979Z,16.82
2016-08-04T00:53:02.696Z,16.84
2016-08-04T00:54:03.412Z,16.83
2016-08-04T00:55:03.415Z,16.89
2016-08-04T00:56:03.428Z,16.77
2016-08-04T00:57:03.423Z,16.73
2016-08-04T00:58:01.983Z,16.73
2016-08-04T00:59:02.699Z,16.76
2016-08-04T01:00:02.708Z,16.68
2016-08-04T01:01:03.439Z,16.77
2016-08-04T01:02:03.434Z,16.82
2016-08-04T01:03:03.427Z,16.8
2016-08-04T01:04:02.701Z,16.82
2016-08-04T01:05:02.715Z,16.76
2016-08-04T01:06:02.707Z,16.74
2016-08-04T01:07:02.711Z,16.72
2016-08-04T01:08:02.715Z,16.77
2016-08-04T01:09:03.435Z,16.68
2016-08-04T01:10:03.444Z,16.68
2016-08-04T01:11:03.432Z,16.66
2016-08-04T01:12:03.431Z,16.73
2016-08-04T01:13:03.432Z,16.72
2016-08-04T01:14:03.427Z,16.73
2016-08-04T01:15:03.440Z,16.69
2016-08-04T01:16:02.002Z,16.58
2016-08-04T01:17:02.715Z,16.64
2016-08-04T01:18:03.431Z,16.61
2016-08-04T01:19:02.716Z,16.68
2016-08-04T01:20:02.728Z,16.65
2016-08-04T01:21:03.452Z,16.68
2016-08-04T01:22:03.440Z,16.61
2016-08-04T01:23:03.440Z,16.64
2016-08-04T01:24:03.447Z,16.55
2016-08-04T01:25:03.452Z,16.58
2016-08-04T01:26:02.725Z,16.58
2016-08-04T01:27:03.445Z,16.74
2016-08-04T01:28:03.444Z,16.61
2016-08-04T01:29:02.725Z,16.69
2016-08-04T01:30:02.724Z,16.62
2016-08-04T01:31:03.456Z,16.58
2016-08-04T01:32:03.453Z,16.62
2016-08-04T01:33:03.444Z,16.55
2016-08-04T01:34:03.448Z,16.58
2016-08-04T01:35:02.777Z,16.5
2016-08-04T01:36:03.457Z,16.57
2016-08-04T01:37:03.466Z,16.51
2016-08-04T01:38:03.456Z,16.5
2016-08-04T01:39:03.509Z,16.46
2016-08-04T01:40:02.740Z,16.46
2016-08-04T01:41:03.456Z,16.49
2016-08-04T01:42:02.737Z,16.4
2016-08-04T01:43:03.456Z,16.34
2016-08-04T01:44:02.745Z,16.39
2016-08-04T01:45:03.461Z,16.39
2016-08-04T01:46:03.465Z,16.36
2016-08-04T01:47:03.465Z,16.32
2016-08-04T01:48:02.745Z,16.28
2016-08-04T01:49:03.462Z,16.25
2016-08-04T01:51:03.466Z,16.21
2016-08-04T01:52:02.741Z,16.18
2016-08-04T01:53:03.466Z,16.13
2016-08-04T01:54:02.741Z,16.1
2016-08-04T01:55:03.466Z,16.12
2016-08-04T01:56:02.749Z,16.1
2016-08-04T01:57:02.030Z,16.06
2016-08-04T01:58:02.746Z,16.09
2016-08-04T01:59:02.746Z,16.1
2016-08-04T02:00:03.470Z,15.99
2016-08-04T02:01:02.758Z,15.96
2016-08-04T02:02:03.473Z,16.02
2016-08-04T02:03:02.751Z,15.99
2016-08-04T02:04:02.805Z,15.98
2016-08-04T02:06:02.757Z,15.94
2016-08-04T02:07:02.758Z,15.98
2016-08-04T02:08:03.478Z,15.9
2016-08-04T02:09:03.486Z,15.92
2016-08-04T02:10:03.490Z,15.88
2016-08-04T02:11:03.482Z,15.73
2016-08-04T02:12:03.481Z,15.88
2016-08-04T02:13:02.763Z,15.85
2016-08-04T02:14:03.487Z,15.81
2016-08-04T02:15:03.486Z,15.83
2016-08-04T02:16:03.483Z,15.8
2016-08-04T02:17:03.490Z,15.78
2016-08-04T02:18:02.763Z,15.73
2016-08-04T02:19:02.056Z,15.67
2016-08-04T02:20:02.770Z,15.65
2016-08-04T02:21:02.050Z,15.75
2016-08-04T02:22:02.774Z,15.66
2016-08-04T02:23:03.486Z,15.75
2016-08-04T02:24:02.767Z,15.73
2016-08-04T02:25:02.770Z,15.62
2016-08-04T02:26:03.494Z,15.62
2016-08-04T02:27:03.494Z,15.62
2016-08-04T02:28:03.490Z,15.62
2016-08-04T02:29:03.498Z,15.63
2016-08-04T02:30:03.499Z,15.51
2016-08-04T02:31:03.506Z,15.55
2016-08-04T02:32:02.771Z,15.55
2016-08-04T02:33:02.774Z,15.59
2016-08-04T02:34:03.495Z,15.54
2016-08-04T02:35:02.778Z,15.45
2016-08-04T02:36:03.495Z,15.52
2016-08-04T02:37:02.774Z,15.44
2016-08-04T02:38:03.502Z,15.59
2016-08-04T02:39:02.790Z,15.43
2016-08-04T02:40:03.503Z,15.54
2016-08-04T02:41:02.059Z,15.52
2016-08-04T02:42:03.494Z,15.44
2016-08-04T02:43:02.790Z,15.44
2016-08-04T02:44:03.511Z,15.47
2016-08-04T02:45:02.787Z,15.45
2016-08-04T02:46:03.500Z,15.45
2016-08-04T02:47:02.782Z,15.39
2016-08-04T02:48:03.510Z,15.47
2016-08-04T02:49:03.510Z,15.45
2016-08-04T02:50:02.071Z,15.52
2016-08-04T02:51:03.507Z,15.51
2016-08-04T02:52:03.523Z,15.54
2016-08-04T02:53:02.795Z,15.5
2016-08-04T02:54:03.510Z,15.45
2016-08-04T02:55:03.510Z,15.5
2016-08-04T02:56:02.796Z,15.45
2016-08-04T02:57:03.512Z,15.54
2016-08-04T02:58:03.519Z,15.5
2016-08-04T02:59:03.527Z,15.52
2016-08-04T03:00:02.796Z,15.45
2016-08-04T03:01:02.796Z,15.44
2016-08-04T03:02:02.803Z,15.44
2016-08-04T03:03:03.515Z,15.45
2016-08-04T03:04:02.791Z,15.45
2016-08-04T03:05:02.797Z,15.47
2016-08-04T03:06:03.515Z,15.44
2016-08-04T03:07:02.807Z,15.45
2016-08-04T03:08:03.515Z,15.45
2016-08-04T03:09:02.796Z,15.48
2016-08-04T03:10:03.520Z,15.48
2016-08-04T03:11:02.799Z,15.52
2016-08-04T03:12:02.799Z,15.45
2016-08-04T03:13:02.804Z,15.39
2016-08-04T03:14:03.516Z,15.47
2016-08-04T03:15:02.803Z,15.35
2016-08-04T03:16:02.792Z,15.41
2016-08-04T03:17:03.523Z,15.35
2016-08-04T03:18:02.804Z,15.47
2016-08-04T03:19:03.533Z,15.43
2016-08-04T03:20:03.525Z,15.43
2016-08-04T03:21:02.808Z,15.37
2016-08-04T03:22:03.529Z,15.35
2016-08-04T03:23:02.808Z,15.44
2016-08-04T03:24:03.524Z,15.35
2016-08-04T03:25:02.810Z,15.33
2016-08-04T03:26:02.804Z,15.33
2016-08-04T03:27:02.803Z,15.33
2016-08-04T03:28:03.520Z,15.35
2016-08-04T03:29:02.100Z,15.32
2016-08-04T03:30:02.813Z,15.33
2016-08-04T03:31:03.533Z,15.36
2016-08-04T03:32:03.528Z,15.3
2016-08-04T03:33:02.804Z,15.32
2016-08-04T03:34:02.808Z,15.23
2016-08-04T03:35:03.530Z,15.23
2016-08-04T03:36:03.529Z,15.23
2016-08-04T03:37:02.813Z,15.23
2016-08-04T03:38:03.532Z,15.19
2016-08-04T03:39:03.525Z,15.23
2016-08-04T03:40:02.813Z,15.1
2016-08-04T03:41:02.809Z,15.15
2016-08-04T03:42:03.533Z,15.11
2016-08-04T03:43:03.536Z,15.17
2016-08-04T03:44:03.538Z,15.11
2016-08-04T03:45:03.529Z,15.11
2016-08-04T03:46:02.818Z,15.11
2016-08-04T03:47:03.530Z,15.11
2016-08-04T03:48:02.821Z,15.08
2016-08-04T03:49:02.822Z,15.08
2016-08-04T03:50:02.818Z,15.07
2016-08-04T03:51:02.826Z,15.04
2016-08-04T03:52:02.821Z,15.02
2016-08-04T03:53:02.825Z,15.08
2016-08-04T03:54:03.545Z,14.97
2016-08-04T03:55:02.821Z,15.02
2016-08-04T03:56:02.105Z,14.93
2016-08-04T03:57:03.557Z,14.97
2016-08-04T03:58:02.828Z,14.96
2016-08-04T03:59:03.545Z,14.96
2016-08-04T04:00:03.546Z,14.97
2016-08-04T04:01:03.549Z,15.04
2016-08-04T04:02:02.834Z,14.97
2016-08-04T04:03:02.830Z,14.97
2016-08-04T04:04:02.922Z,14.99
2016-08-04T04:05:03.554Z,14.96
2016-08-04T04:06:02.824Z,14.97
2016-08-04T04:07:03.549Z,15.05
2016-08-04T04:08:03.541Z,14.94
2016-08-04T04:09:03.557Z,15.02
2016-08-04T04:10:02.831Z,15.04
2016-08-04T04:11:03.558Z,15.02
2016-08-04T04:12:03.553Z,15.02
2016-08-04T04:13:02.827Z,15.02
2016-08-04T04:14:02.822Z,15.04
2016-08-04T04:15:03.564Z,15.11
2016-08-04T04:16:02.834Z,15.23
2016-08-04T04:17:03.553Z,15.12
2016-08-04T04:18:03.550Z,15.17
2016-08-04T04:19:02.827Z,15.23
2016-08-04T04:20:03.558Z,15.37
2016-08-04T04:21:03.562Z,15.33
2016-08-04T04:22:02.834Z,15.5
2016-08-04T04:23:03.550Z,15.45
2016-08-04T04:24:03.558Z,15.52
2016-08-04T04:25:02.842Z,15.57
2016-08-04T04:26:03.559Z,15.67
2016-08-04T04:27:02.858Z,15.72
2016-08-04T04:28:02.126Z,15.85
2016-08-04T04:29:02.846Z,15.96
2016-08-04T04:30:03.574Z,16.24
2016-08-04T04:31:03.571Z,16.47
2016-08-04T04:32:02.846Z,16.66
2016-08-04T04:33:03.550Z,16.8
2016-08-04T04:34:03.561Z,17.05
2016-08-04T04:35:02.122Z,17.27
2016-08-04T04:36:03.558Z,17.46
2016-08-04T04:37:02.861Z,17.69
2016-08-04T04:38:02.842Z,17.79
2016-08-04T04:39:03.577Z,17.9
2016-08-04T04:40:03.559Z,18
2016-08-04T04:41:02.846Z,18.09
2016-08-04T04:42:03.568Z,18.21
2016-08-04T04:43:02.847Z,18.26
2016-08-04T04:44:03.567Z,18.6
2016-08-04T04:45:03.559Z,18.67
2016-08-04T04:46:03.559Z,18.79
2016-08-04T04:47:03.559Z,18.98
2016-08-04T04:48:02.839Z,19.35
2016-08-04T04:49:02.846Z,19.45
2016-08-04T04:50:03.567Z,19.59
2016-08-04T04:51:03.580Z,19.78
2016-08-04T04:52:02.839Z,19.9
2016-08-04T04:53:03.567Z,20.07
2016-08-04T04:54:02.855Z,20.21
2016-08-04T04:55:02.847Z,20.42
2016-08-04T04:56:03.567Z,20.58
2016-08-04T04:57:02.851Z,20.73
2016-08-04T04:58:02.843Z,20.9
2016-08-04T04:59:02.855Z,21.13
2016-08-04T05:00:03.575Z,21.37
2016-08-04T05:01:02.859Z,21.62
2016-08-04T05:02:02.851Z,21.92
2016-08-04T05:03:03.575Z,22.28
2016-08-04T05:04:03.567Z,22.55
2016-08-04T05:05:02.852Z,22.99
2016-08-04T05:06:03.575Z,23.32
2016-08-04T05:07:03.576Z,23.67
2016-08-04T05:08:03.569Z,23.86
2016-08-04T05:09:02.856Z,23.99
2016-08-04T05:10:03.584Z,24.09
2016-08-04T05:11:03.575Z,24.29
2016-08-04T05:12:02.856Z,24.5
2016-08-04T05:13:03.576Z,24.85
2016-08-04T05:14:03.575Z,25.24
2016-08-04T05:15:02.864Z,25.62
2016-08-04T05:16:02.139Z,26.08
2016-08-04T05:17:02.863Z,26.51
2016-08-04T05:18:02.864Z,26.91
2016-08-04T05:19:02.864Z,27.38
2016-08-04T05:20:03.584Z,27.9
2016-08-04T05:21:02.856Z,28.28
2016-08-04T05:22:02.864Z,28.68
2016-08-04T05:23:03.584Z,29.07
2016-08-04T05:24:03.584Z,29.43
2016-08-04T05:25:03.585Z,29.83
2016-08-04T05:26:03.592Z,30.23
2016-08-04T05:27:03.592Z,30.63
2016-08-04T05:28:02.868Z,31.14
2016-08-04T05:29:03.588Z,31.51
2016-08-04T05:30:03.591Z,31.81
2016-08-04T05:31:03.596Z,32.26
2016-08-04T05:32:02.871Z,32.46
2016-08-04T05:33:03.592Z,32.88
2016-08-04T05:34:03.592Z,33.09
2016-08-04T05:35:03.592Z,33.38
2016-08-04T05:37:02.872Z,33.97
2016-08-04T05:38:02.868Z,34.35
2016-08-04T05:39:03.601Z,34.48
2016-08-04T05:40:02.888Z,34.69
2016-08-04T05:41:02.876Z,34.93
2016-08-04T05:42:02.884Z,35.03
2016-08-04T05:43:02.164Z,35.13
2016-08-04T05:44:03.612Z,35.16
2016-08-04T05:45:02.880Z,35.16
2016-08-04T05:46:02.880Z,35.04
2016-08-04T05:47:03.598Z,35.13
2016-08-04T05:48:02.884Z,35.16
2016-08-04T05:49:02.889Z,35.27
2016-08-04T05:50:03.608Z,35.63
2016-08-04T05:52:02.176Z,36.05
2016-08-04T05:53:03.614Z,36.31
2016-08-04T05:54:03.625Z,36.62
2016-08-04T05:55:02.893Z,36.88
2016-08-04T05:56:02.177Z,36.94
2016-08-04T05:57:03.617Z,36.87
2016-08-04T05:58:03.614Z,36.84
2016-08-04T05:59:02.897Z,36.6
2016-08-04T06:00:02.897Z,36.43
2016-08-04T06:01:02.897Z,36.17
2016-08-04T06:02:03.625Z,35.75
2016-08-04T06:03:02.896Z,35.63
2016-08-04T06:04:02.949Z,35.86
2016-08-04T06:05:02.905Z,35.94
2016-08-04T06:06:02.912Z,35.94
2016-08-04T06:07:03.625Z,36
2016-08-04T06:08:03.622Z,36.01
2016-08-04T06:09:03.630Z,35.76
2016-08-04T06:10:03.629Z,35.45
2016-08-04T06:11:03.645Z,35.08
2016-08-04T06:12:03.631Z,34.93
2016-08-04T06:13:03.638Z,34.69
2016-08-04T06:14:02.913Z,34.53
2016-08-04T06:15:02.190Z,34.62
2016-08-04T06:16:02.916Z,34.6
2016-08-04T06:17:02.917Z,34.69
2016-08-04T06:18:02.919Z,34.6
2016-08-04T06:19:03.652Z,34.63
2016-08-04T06:20:02.925Z,34.56
2016-08-04T06:21:03.642Z,34.21
2016-08-04T06:22:03.645Z,34.04
2016-08-04T06:23:02.925Z,33.89
2016-08-04T06:24:03.649Z,33.69
2016-08-04T06:25:02.210Z,33.57
2016-08-04T06:26:02.926Z,33.17
2016-08-04T06:27:02.937Z,32.94
2016-08-04T06:28:03.659Z,33
2016-08-04T06:29:02.225Z,33.22
2016-08-04T06:30:02.950Z,33.65
2016-08-04T06:31:03.662Z,34.19
2016-08-04T06:32:03.677Z,34.76
2016-08-04T06:33:03.659Z,35.1
2016-08-04T06:34:03.667Z,35.18
2016-08-04T06:35:02.942Z,35.19
2016-08-04T06:36:02.967Z,35.52
2016-08-04T06:37:03.662Z,35.52
2016-08-04T06:38:02.958Z,35.49
2016-08-04T06:39:02.955Z,35.63
2016-08-04T06:40:03.683Z,35.79
2016-08-04T06:41:03.695Z,36.05
2016-08-04T06:42:03.674Z,36.33
2016-08-04T06:43:03.678Z,36.62
2016-08-04T06:44:03.678Z,37.09
2016-08-04T06:45:02.964Z,37.4
2016-08-04T06:46:03.700Z,37.56
2016-08-04T06:47:03.694Z,37.95
2016-08-04T06:48:03.687Z,38.38
2016-08-04T06:49:02.966Z,38.69
2016-08-04T06:50:02.967Z,39.03
2016-08-04T06:51:02.250Z,39.05
2016-08-04T06:52:02.251Z,39.17
2016-08-04T06:53:02.979Z,39.64
2016-08-04T06:54:03.700Z,39.85
2016-08-04T06:55:02.983Z,40.24
2016-08-04T06:56:03.700Z,40.46
2016-08-04T06:57:03.699Z,40.61
2016-08-04T06:58:02.980Z,40.92
2016-08-04T06:59:03.717Z,41.23
2016-08-04T07:00:03.707Z,41.57
2016-08-04T07:01:03.708Z,41.9
2016-08-04T07:02:02.987Z,41.84
2016-08-04T07:03:03.712Z,42
2016-08-04T07:04:02.996Z,42.02
2016-08-04T07:05:02.984Z,42.17
2016-08-04T07:06:02.992Z,42.53
2016-08-04T07:07:03.713Z,42.87
2016-08-04T07:08:03.000Z,43.38
2016-08-04T07:09:02.995Z,43.82
2016-08-04T07:10:02.996Z,44.28
2016-08-04T07:11:02.284Z,44.6
2016-08-04T07:12:03.736Z,44.91
2016-08-04T07:13:03.008Z,45.26
2016-08-04T07:14:03.020Z,45.48
2016-08-04T07:15:03.013Z,45.71
2016-08-04T07:16:03.744Z,45.96
2016-08-04T07:17:03.745Z,46.27
2016-08-04T07:18:03.740Z,46.35
2016-08-04T07:19:03.017Z,46.53
2016-08-04T07:20:03.024Z,46.65
2016-08-04T07:21:03.029Z,46.62
2016-08-04T07:22:03.084Z,46.32
2016-08-04T07:23:03.748Z,46.31
2016-08-04T07:24:03.745Z,46.05
2016-08-04T07:25:03.028Z,45.95
2016-08-04T07:26:03.037Z,45.77
2016-08-04T07:27:03.040Z,45.7
2016-08-04T07:28:03.040Z,45.67
2016-08-04T07:29:03.056Z,45.67
2016-08-04T07:30:03.048Z,45.69
2016-08-04T07:31:03.773Z,45.76
2016-08-04T07:32:03.765Z,45.85
2016-08-04T07:33:03.048Z,46.12
2016-08-04T07:34:03.045Z,46.24
2016-08-04T07:35:02.352Z,46.46
2016-08-04T07:36:03.153Z,46.62
2016-08-04T07:37:03.057Z,46.61
2016-08-04T07:38:03.053Z,46.56
2016-08-04T07:39:03.787Z,46.49
2016-08-04T07:40:03.065Z,46.35
2016-08-04T07:41:03.065Z,45.43
2016-08-04T07:42:02.344Z,44.62
2016-08-04T07:43:03.077Z,44.19
2016-08-04T07:44:03.072Z,43.8
2016-08-04T07:45:02.357Z,43.76
2016-08-04T07:46:03.076Z,43.8
2016-08-04T07:47:03.881Z,43.65
2016-08-04T07:48:03.788Z,43.51
2016-08-04T07:49:03.793Z,43.69
2016-08-04T07:50:03.088Z,43.81
2016-08-04T07:51:02.373Z,44.04
2016-08-04T07:52:03.089Z,43.97
2016-08-04T07:53:03.092Z,43.68
2016-08-04T07:54:03.804Z,43.41
2016-08-04T07:55:03.819Z,43.27
2016-08-04T07:56:03.821Z,42.84
2016-08-04T07:57:03.101Z,42.33
2016-08-04T07:58:03.820Z,41.9
2016-08-04T07:59:03.101Z,41.63
2016-08-04T08:00:03.102Z,41.78
2016-08-04T08:01:03.824Z,42.02
2016-08-04T08:02:03.830Z,42.24
2016-08-04T08:03:03.833Z,42.51
2016-08-04T08:04:03.217Z,42.74
2016-08-04T08:05:03.117Z,42.97
2016-08-04T08:06:03.117Z,42.93
2016-08-04T08:07:03.121Z,42.99
2016-08-04T08:08:03.125Z,43.11
2016-08-04T08:09:03.130Z,43.02
2016-08-04T08:10:03.121Z,43.24
2016-08-04T08:11:03.142Z,43.53
2016-08-04T08:12:03.129Z,43.69
2016-08-04T08:13:02.408Z,43.88
2016-08-04T08:14:03.153Z,43.88
2016-08-04T08:15:03.149Z,43.81
2016-08-04T08:16:03.865Z,43.8
2016-08-04T08:17:03.137Z,43.73
2016-08-04T08:18:03.862Z,43.56
2016-08-04T08:19:03.861Z,43.27
2016-08-04T08:20:03.870Z,42.56
2016-08-04T08:21:03.885Z,41.98
2016-08-04T08:22:03.878Z,41.61
2016-08-04T08:23:03.879Z,41.17
2016-08-04T08:24:03.157Z,41
2016-08-04T08:25:03.882Z,40.85
2016-08-04T08:26:03.157Z,40.7
2016-08-04T08:27:03.882Z,40.58
2016-08-04T08:28:03.890Z,40.44
2016-08-04T08:29:03.170Z,40.36
2016-08-04T08:30:03.169Z,40.43
2016-08-04T08:31:02.455Z,40.44
2016-08-04T08:32:03.895Z,40.71
2016-08-04T08:33:03.178Z,40.89
2016-08-04T08:34:03.895Z,41.14
2016-08-04T08:35:03.902Z,41.42
2016-08-04T08:36:03.910Z,41.67
2016-08-04T08:37:03.182Z,41.8
2016-08-04T08:38:03.194Z,42.02
2016-08-04T08:39:03.189Z,42.24
2016-08-04T08:40:03.910Z,42.4
2016-08-04T08:41:03.918Z,42.43
2016-08-04T08:42:02.486Z,42.53
2016-08-04T08:43:03.923Z,42.51
2016-08-04T08:44:03.934Z,42.49
2016-08-04T08:45:03.926Z,42.39
2016-08-04T08:46:03.934Z,42.36
2016-08-04T08:47:03.938Z,42.36
2016-08-04T08:48:03.937Z,42.52
2016-08-04T08:49:03.947Z,42.65
2016-08-04T08:50:03.938Z,42.93
2016-08-04T08:51:02.509Z,43.25
2016-08-04T08:52:03.950Z,43.36
2016-08-04T08:53:02.506Z,43.69
2016-08-04T08:54:02.511Z,43.89
2016-08-04T08:55:03.231Z,44.04
2016-08-04T08:56:03.235Z,44.03
2016-08-04T08:57:03.239Z,44.18
2016-08-04T08:58:03.959Z,44.07
2016-08-04T08:59:03.252Z,44.02
2016-08-04T09:00:03.247Z,43.99
2016-08-04T09:01:03.971Z,44.02
2016-08-04T09:02:03.971Z,43.89
2016-08-04T09:03:03.262Z,43.72
2016-08-04T09:04:03.975Z,43.58
2016-08-04T09:05:03.974Z,43.54
2016-08-04T09:06:03.983Z,43.7
2016-08-04T09:07:02.543Z,43.8
2016-08-04T09:08:03.266Z,43.77
2016-08-04T09:09:03.266Z,43.77
2016-08-04T09:10:03.279Z,43.76
2016-08-04T09:11:04.012Z,43.66
2016-08-04T09:12:04.004Z,43.68
2016-08-04T09:13:04.004Z,43.57
2016-08-04T09:14:04.003Z,43.43
2016-08-04T09:15:03.270Z,43.24
2016-08-04T09:16:03.292Z,43.08
2016-08-04T09:17:03.287Z,43.05
2016-08-04T09:18:03.287Z,43.02
2016-08-04T09:19:04.023Z,43.02
2016-08-04T09:20:03.291Z,42.93
2016-08-04T09:21:04.020Z,42.65
2016-08-04T09:22:03.303Z,42.34
2016-08-04T09:23:04.031Z,42.09
2016-08-04T09:24:03.311Z,41.67
2016-08-04T09:25:03.303Z,41.51
2016-08-04T09:26:03.316Z,41.15
2016-08-04T09:27:04.036Z,40.93
2016-08-04T09:28:04.060Z,40.83
2016-08-04T09:29:03.320Z,40.78
2016-08-04T09:30:02.603Z,40.71
2016-08-04T09:31:04.043Z,40.48
2016-08-04T09:32:04.065Z,40.32
2016-08-04T09:33:03.331Z,40.12
2016-08-04T09:34:04.056Z,39.88
2016-08-04T09:35:04.051Z,39.7
2016-08-04T09:36:03.335Z,39.61
2016-08-04T09:37:03.344Z,39.6
2016-08-04T09:38:03.344Z,39.56
2016-08-04T09:39:03.347Z,39.56
2016-08-04T09:40:04.066Z,39.48
2016-08-04T09:41:03.352Z,39.52
2016-08-04T09:42:04.077Z,39.6
2016-08-04T09:43:04.076Z,39.6
2016-08-04T09:44:03.361Z,39.44
2016-08-04T09:45:04.075Z,39.41
2016-08-04T09:46:04.085Z,39.23
2016-08-04T09:47:04.100Z,39.03
2016-08-04T09:48:03.368Z,38.85
2016-08-04T09:49:04.097Z,38.58
2016-08-04T09:50:03.367Z,38.2
2016-08-04T09:51:03.376Z,37.76
2016-08-04T09:52:03.633Z,37.29
2016-08-04T09:53:03.380Z,36.91
2016-08-04T09:54:04.101Z,36.6
2016-08-04T09:55:02.661Z,36.28
2016-08-04T09:56:03.388Z,35.91
2016-08-04T09:57:02.673Z,35.66
2016-08-04T09:58:04.108Z,35.44
2016-08-04T09:59:04.109Z,35.3
2016-08-04T10:00:04.122Z,35.13
2016-08-04T10:01:03.393Z,35.08
2016-08-04T10:02:03.404Z,34.7
2016-08-04T10:03:03.401Z,34.51
2016-08-04T10:04:03.557Z,34.25
2016-08-04T10:05:03.414Z,34.21
2016-08-04T10:06:03.413Z,34.07
2016-08-04T10:08:04.133Z,33.67
2016-08-04T10:09:03.414Z,33.48
2016-08-04T10:10:04.142Z,33.2
2016-08-04T10:11:04.145Z,33.16
2016-08-04T10:12:04.157Z,32.98
2016-08-04T10:13:04.149Z,32.82
2016-08-04T10:14:03.437Z,32.93
2016-08-04T10:15:03.437Z,32.81
2016-08-04T10:16:03.434Z,32.82
2016-08-04T10:17:03.441Z,32.78
2016-08-04T10:18:04.169Z,32.64
2016-08-04T10:19:04.160Z,32.59
2016-08-04T10:20:04.166Z,32.46
2016-08-04T10:21:04.170Z,32.31
2016-08-04T10:23:04.185Z,32.2
2016-08-04T10:24:03.461Z,31.93
2016-08-04T10:25:04.185Z,31.79
2016-08-04T10:26:04.189Z,31.67
2016-08-04T10:27:03.469Z,31.54
2016-08-04T10:28:03.469Z,31.39
2016-08-04T10:29:03.478Z,31.26
2016-08-04T10:30:04.197Z,31.3
2016-08-04T10:31:03.477Z,31.26
2016-08-04T10:32:04.206Z,31.35
2016-08-04T10:33:04.209Z,31.36
2016-08-04T10:34:04.205Z,31.37
2016-08-04T10:35:04.200Z,31.51
2016-08-04T10:36:03.494Z,31.47
2016-08-04T10:37:03.502Z,31.57
2016-08-04T10:38:03.494Z,31.5
2016-08-04T10:39:04.234Z,31.52
2016-08-04T10:40:04.218Z,31.48
2016-08-04T10:41:03.505Z,31.51
2016-08-04T10:42:04.234Z,31.45
2016-08-04T10:43:04.241Z,31.48
2016-08-04T10:44:02.794Z,31.42
2016-08-04T10:45:03.508Z,31.36
2016-08-04T10:46:04.234Z,31.33
2016-08-04T10:47:03.526Z,31.29
2016-08-04T10:48:03.522Z,31.37
2016-08-04T10:49:03.526Z,31.48
2016-08-04T10:50:04.261Z,31.41
2016-08-04T10:51:04.257Z,31.36
2016-08-04T10:52:04.250Z,31.42
2016-08-04T10:53:04.257Z,31.41
2016-08-04T10:54:04.266Z,31.36
2016-08-04T10:55:04.266Z,31.45
2016-08-04T10:56:04.262Z,31.5
2016-08-04T10:57:04.271Z,31.5
2016-08-04T10:58:02.827Z,31.51
2016-08-04T10:59:03.554Z,31.51
2016-08-04T11:00:04.279Z,31.47
2016-08-04T11:01:04.283Z,31.42
2016-08-04T11:02:03.560Z,31.37
2016-08-04T11:03:03.567Z,31.42
2016-08-04T11:04:04.279Z,31.39
2016-08-04T11:05:04.299Z,31.29
2016-08-04T11:06:04.283Z,31.33
2016-08-04T11:07:04.291Z,31.28
2016-08-04T11:08:04.300Z,31.25
2016-08-04T11:09:03.580Z,31.2
2016-08-04T11:10:03.579Z,31.11
2016-08-04T11:11:03.587Z,31.17
2016-08-04T11:12:04.308Z,31.07
2016-08-04T11:13:04.328Z,31.14
2016-08-04T11:14:04.314Z,31.1
2016-08-04T11:15:03.602Z,31.14
2016-08-04T11:16:02.880Z,31.22
2016-08-04T11:17:04.312Z,31.07
2016-08-04T11:18:04.323Z,30.89
2016-08-04T11:19:04.327Z,30.73
2016-08-04T11:20:04.328Z,30.7
2016-08-04T11:21:04.335Z,30.67
2016-08-04T11:22:03.616Z,30.61
2016-08-04T11:23:03.614Z,30.48
2016-08-04T11:24:04.344Z,30.59
2016-08-04T11:25:04.347Z,30.62
2016-08-04T11:26:04.343Z,30.61
2016-08-04T11:27:03.631Z,30.7
2016-08-04T11:28:04.344Z,30.73
2016-08-04T11:29:03.632Z,30.63
2016-08-04T11:30:03.632Z,30.63
2016-08-04T11:31:04.356Z,30.65
2016-08-04T11:32:03.641Z,30.69
2016-08-04T11:33:03.643Z,30.73
2016-08-04T11:34:03.644Z,30.73
2016-08-04T11:35:03.640Z,30.67
2016-08-04T11:36:04.367Z,30.58
2016-08-04T11:37:04.371Z,30.59
2016-08-04T11:38:04.371Z,30.62
2016-08-04T11:39:03.661Z,30.67
2016-08-04T11:40:03.668Z,30.63
2016-08-04T11:41:04.388Z,30.77
2016-08-04T11:42:04.397Z,30.7
2016-08-04T11:43:04.403Z,30.73
2016-08-04T11:44:04.391Z,30.77
2016-08-04T11:45:04.399Z,30.83
2016-08-04T11:46:03.676Z,30.8
2016-08-04T11:47:02.952Z,30.83
2016-08-04T11:48:03.672Z,30.86
2016-08-04T11:49:03.684Z,30.81
2016-08-04T11:50:04.409Z,30.78
2016-08-04T11:51:04.404Z,30.71
2016-08-04T11:52:04.413Z,30.74
2016-08-04T11:53:04.425Z,30.77
2016-08-04T11:54:04.429Z,30.73
2016-08-04T11:55:04.424Z,30.83
2016-08-04T11:56:04.414Z,30.83
2016-08-04T11:57:02.985Z,30.92
2016-08-04T11:58:03.712Z,30.92
2016-08-04T11:59:03.713Z,30.93
2016-08-04T12:00:04.434Z,30.95
2016-08-04T12:01:04.441Z,30.95
2016-08-04T12:02:03.725Z,30.92
2016-08-04T12:03:03.728Z,30.93
2016-08-04T12:04:03.724Z,30.96
2016-08-04T12:05:04.446Z,31.04
2016-08-04T12:06:04.457Z,31.1
2016-08-04T12:07:04.449Z,31.14
2016-08-04T12:08:04.449Z,31.13
2016-08-04T12:09:03.736Z,31.22
2016-08-04T12:10:04.457Z,31.26
2016-08-04T12:11:03.740Z,31.29
2016-08-04T12:12:04.469Z,31.37
2016-08-04T12:13:03.021Z,31.33
2016-08-04T12:14:03.028Z,31.36
2016-08-04T12:15:03.745Z,31.41
2016-08-04T12:16:04.469Z,31.35
2016-08-04T12:17:04.480Z,31.35
2016-08-04T12:18:04.481Z,31.39
2016-08-04T12:19:03.761Z,31.39
2016-08-04T12:20:04.493Z,31.37
2016-08-04T12:21:04.485Z,31.41
2016-08-04T12:22:03.768Z,31.39
2016-08-04T12:23:03.057Z,31.48
2016-08-04T12:24:03.774Z,31.39
2016-08-04T12:25:04.488Z,31.44
2016-08-04T12:26:03.780Z,31.45
2016-08-04T12:27:04.500Z,31.51
2016-08-04T12:28:03.789Z,31.42
2016-08-04T12:29:04.505Z,31.45
2016-08-04T12:30:04.505Z,31.52
2016-08-04T12:31:04.509Z,31.51
2016-08-04T12:32:03.794Z,31.51
2016-08-04T12:33:04.517Z,31.47
2016-08-04T12:34:04.529Z,31.47
2016-08-04T12:35:03.810Z,31.44
2016-08-04T12:36:04.525Z,31.37
2016-08-04T12:37:04.521Z,31.29
2016-08-04T12:38:03.814Z,31.26
2016-08-04T12:39:04.542Z,31.15
2016-08-04T12:40:04.538Z,31.17
2016-08-04T12:41:03.810Z,30.92
2016-08-04T12:42:03.097Z,30.93
2016-08-04T12:43:03.826Z,30.93
2016-08-04T12:44:04.542Z,30.77
2016-08-04T12:45:03.830Z,30.77
2016-08-04T12:46:03.830Z,30.63
2016-08-04T12:47:03.830Z,30.67
2016-08-04T12:48:03.838Z,30.62
2016-08-04T12:49:04.566Z,30.67
2016-08-04T12:50:03.838Z,30.77
2016-08-04T12:51:03.849Z,30.92
2016-08-04T12:52:03.125Z,30.99
2016-08-04T12:53:03.850Z,31.02
2016-08-04T12:54:04.567Z,31.17
2016-08-04T12:55:04.570Z,31.18
2016-08-04T12:56:04.586Z,31.28
2016-08-04T12:57:04.575Z,31.23
2016-08-04T12:58:03.854Z,31.3
2016-08-04T12:59:03.870Z,31.25
2016-08-04T13:00:03.866Z,31.3
2016-08-04T13:01:04.595Z,31.39